Terminal Aerodrome Forecast
Issued by NWS Jackson, KY

Home | Current Version | Previous Version | Text Only | Print | Product List | Glossary On
Versions: 1 2 3 4 5 6 7 8 9 10 11 12 13 14 15 16
000
FTUS43 KJKL 020500
TAFJKL
TAF
KJKL 020535Z 0206/0306 00000KT P6SM SCT001 BKN120
      TEMPO 0206/0210 1SM BR VV001
     FM021000 00000KT 1/2SM FG VV001
     FM021300 00000KT 4SM BR OVC050
     FM021400 31003KT P6SM VCTS SCT060CB BKN100
     FM030000 00000KT P6SM BKN050=

USA.gov is the U.S. government's official web portal to all federal, state and local government web resources and services.